createdAt,value
2018-05-14T20:55:16.403Z,14.53
2018-05-14T20:57:43.883Z,14.57
2018-05-14T21:00:11.382Z,14.63
2018-05-14T21:02:38.879Z,14.67
2018-05-14T21:05:06.351Z,14.69
2018-05-14T21:07:33.802Z,14.63
2018-05-14T21:10:01.257Z,14.62
2018-05-14T21:12:28.738Z,14.57
2018-05-14T21:14:56.217Z,14.51
2018-05-14T21:17:23.697Z,14.45
2018-05-14T21:19:51.181Z,14.43
2018-05-14T21:22:18.660Z,14.41
2018-05-14T21:24:46.177Z,14.42
2018-05-14T21:27:13.704Z,14.45
2018-05-14T21:29:41.225Z,14.51
2018-05-14T21:32:08.747Z,14.50
2018-05-14T21:34:37.268Z,14.50
2018-05-14T21:37:04.992Z,14.50
2018-05-14T21:39:33.438Z,14.49
2018-05-14T21:42:07.406Z,14.55
2018-05-14T21:44:35.839Z,14.50
2018-05-14T21:47:03.322Z,14.53
2018-05-14T21:49:32.778Z,14.55
2018-05-14T21:52:00.370Z,14.58
2018-05-14T21:54:27.884Z,14.59
2018-05-14T21:57:01.282Z,14.60
2018-05-14T21:59:28.800Z,14.52
2018-05-14T22:01:56.352Z,14.53
2018-05-14T22:04:23.789Z,14.52
2018-05-14T22:06:56.188Z,14.45
2018-05-14T22:09:23.672Z,14.39
2018-05-14T22:11:51.209Z,14.34
2018-05-14T22:14:18.691Z,14.34
2018-05-14T22:16:46.163Z,14.37
2018-05-14T22:19:15.626Z,14.34
2018-05-14T22:21:43.097Z,14.32
2018-05-14T22:24:10.600Z,14.33
2018-05-14T22:26:38.168Z,14.32
2018-05-14T22:29:12.086Z,14.34
2018-05-14T22:31:39.570Z,14.34
2018-05-14T22:34:07.097Z,14.32
2018-05-14T22:36:34.570Z,14.29
2018-05-14T22:39:02.070Z,14.30
2018-05-14T22:41:29.555Z,14.30
2018-05-14T22:43:57.043Z,14.29
2018-05-14T22:46:36.721Z,14.25
2018-05-14T22:49:16.867Z,14.28
2018-05-14T22:51:44.351Z,14.21
2018-05-14T22:54:12.649Z,14.20
2018-05-14T22:56:40.170Z,14.24
2018-05-14T22:59:14.832Z,14.22
2018-05-14T23:01:42.338Z,14.17
2018-05-14T23:04:09.901Z,14.17
2018-05-14T23:06:37.385Z,14.19
2018-05-14T23:09:04.834Z,14.21
2018-05-14T23:11:32.289Z,14.18
2018-05-14T23:13:59.776Z,14.19
2018-05-14T23:16:27.285Z,14.14
2018-05-14T23:18:54.764Z,14.13
2018-05-14T23:21:22.245Z,14.09
2018-05-14T23:23:49.739Z,14.03
2018-05-14T23:26:17.339Z,14.04
2018-05-14T23:28:44.840Z,14.03
2018-05-14T23:31:12.446Z,13.99
2018-05-14T23:33:39.938Z,14.06
2018-05-14T23:36:07.426Z,13.98
2018-05-14T23:38:34.890Z,13.92
2018-05-14T23:41:02.428Z,13.96
2018-05-14T23:46:22.841Z,13.87
2018-05-14T23:48:50.341Z,13.91
2018-05-14T23:51:17.938Z,13.93
2018-05-14T23:53:45.450Z,13.93
2018-05-14T23:56:12.971Z,13.98
2018-05-14T23:58:40.467Z,13.95
